San Lorenzo, CA

10:50 PM PDT on September 16, 2014 (GMT -0700)
Hayward Executive | Change Station
CLOSE
Current Station
Airport
Location: Hayward,
Elevation: 46 ft
Nearby Weather Stations

Elev 46 ft 37.66 °N, 122.12 °W | Updated 56 minutes ago

Partly Cloudy
Partly Cloudy
67 °F
Feels Like 67 °F
N
0
Wind Variable Wind from North

Today
High -- | Low -- °F
--% Chance of Precip.
Yesterday
High -- | Low -- °F
Precip. -- in
6:51 AM 7:14 PM
Last Quarter, 39% visible
Pressure 29.86 in
Visibility 10.0 miles
Clouds Clear
Dew Point 62 °F
Humidity 84%
Rainfall 0.00 in
Snow Depth 1 in , 0 in , 0 in
UV 0 out of 12
Pollen 5.20 out of 12
PM2.5 Good
Flu Activity Not available.
METAR KHWD 170454Z 00000KT 10SM CLR 19/17 A2984 RMK AO2 SLP112 T01940167

More Conditions Fewer Conditions

Pressure 29.86 in
Visibility 10.0 miles
Clouds Clear
Dew Point 62 °F
Humidity 84%
Rainfall 0.00 in
Snow Depth 1 in , 0 in , 0 in
UV 0 out of 12
Pollen 5.20 out of 12
PM2.5 Good
Flu Activity Not available.
METAR KHWD 170454Z 00000KT 10SM CLR 19/17 A2984 RMK AO2 SLP112 T01940167

More Conditions Fewer Conditions

10-Day Weather Forecast

Almanac

Astronomy

Sep. 16, 2014 Rise Set
Actual Time 6:51 AM PDT 7:14 PM PDT
Civil Twilight 6:25 AM PDT 7:40 PM PDT
Nautical Twilight 5:54 AM PDT 8:11 PM PDT
Astronomical Twilight 5:22 AM PDT 8:42 PM PDT
Moon 12:10 AM PDT (9/16) 2:37 PM PDT (9/16)
Length of Visible Light 13h 15m
Length of Day
12h 23m
Tomorrow will be 2m 23s shorter.
Last Quarter, 39% of the Moon is Illuminated
Sep 17
Last Quarter
Sep 24
New
Oct 1
First Quarter
Oct 8
Full
Oct 15
Last Quarter

Yesterday's Extremes

State Highs State Lows

Community

WunderPhotos

Upload Photos

1,753,968 photos uploaded!

Nearby

Air Quality

  Air Quality AQ Index Pollutant
Yesterday Good
PM2.5
Yesterday Good
OZONE
Current Good
PM2.5
Tuesday Good
PM2.5
Wednesday Good
OZONE
Thursday Good
OZONE
Friday Good
OZONE
Saturday Good
OZONE
Sunday Good
OZONE

Snow Depth

Station Depth Elevation
Adin Mountain 1 in 6200 ft
Summit Meadow 0 in 9122 ft
Spratt Creek 0 in 6200 ft
Monitor Pass 0 in 8350 ft
Leavitt Meadows 0 in 7200 ft

Earthquake Activity

City Distance Mag. Time & Date
Cobb, California 84 miles 2.7 1:23 PM PDT
2014-09-16
Cobb, California 88 miles 2.7 11:07 AM PDT
2014-09-14
Minimum magnitude displayed is 2.5.

Coastal Water Temperatures

Place Temperature
No Stations Reporting

Nearby Weather Stations